sensor_id;sensor_type;location;lat;lon;timestamp;P1;durP1;ratioP1;P2;durP2;ratioP2
73382;SDS011;61600;48.126;11.542;2022-10-16T00:02:16;3.28;;;1.92;;
73382;SDS011;61600;48.126;11.542;2022-10-16T00:04:42;3.65;;;1.90;;
73382;SDS011;61600;48.126;11.542;2022-10-16T00:07:10;3.83;;;2.00;;
73382;SDS011;61600;48.126;11.542;2022-10-16T00:09:36;5.05;;;1.80;;
73382;SDS011;61600;48.126;11.542;2022-10-16T00:12:02;4.38;;;2.60;;
73382;SDS011;61600;48.126;11.542;2022-10-16T00:14:32;5.25;;;1.90;;
73382;SDS011;61600;48.126;11.542;2022-10-16T00:16:57;2.78;;;1.80;;
73382;SDS011;61600;48.126;11.542;2022-10-16T00:19:23;3.47;;;1.75;;
73382;SDS011;61600;48.126;11.542;2022-10-16T00:21:57;3.75;;;1.90;;
73382;SDS011;61600;48.126;11.542;2022-10-16T00:24:22;3.05;;;1.83;;
73382;SDS011;61600;48.126;11.542;2022-10-16T00:26:49;6.95;;;2.08;;
73382;SDS011;61600;48.126;11.542;2022-10-16T00:29:15;4.65;;;2.38;;
73382;SDS011;61600;48.126;11.542;2022-10-16T00:31:40;8.85;;;2.08;;
73382;SDS011;61600;48.126;11.542;2022-10-16T00:34:09;5.55;;;1.90;;
73382;SDS011;61600;48.126;11.542;2022-10-16T00:36:35;4.40;;;1.65;;
73382;SDS011;61600;48.126;11.542;2022-10-16T00:39:00;4.47;;;2.17;;
73382;SDS011;61600;48.126;11.542;2022-10-16T00:41:26;2.78;;;1.75;;
73382;SDS011;61600;48.126;11.542;2022-10-16T00:43:54;2.63;;;1.80;;
73382;SDS011;61600;48.126;11.542;2022-10-16T00:49:15;5.15;;;2.20;;
73382;SDS011;61600;48.126;11.542;2022-10-16T00:51:46;3.42;;;1.75;;
73382;SDS011;61600;48.126;11.542;2022-10-16T00:54:16;3.53;;;2.40;;
73382;SDS011;61600;48.126;11.542;2022-10-16T00:56:44;4.55;;;2.00;;
73382;SDS011;61600;48.126;11.542;2022-10-16T00:59:14;4.68;;;1.90;;
73382;SDS011;61600;48.126;11.542;2022-10-16T01:01:47;4.22;;;2.13;;
73382;SDS011;61600;48.126;11.542;2022-10-16T01:04:13;5.13;;;2.20;;
73382;SDS011;61600;48.126;11.542;2022-10-16T01:06:42;3.75;;;2.00;;
73382;SDS011;61600;48.126;11.542;2022-10-16T01:09:17;4.32;;;1.95;;
73382;SDS011;61600;48.126;11.542;2022-10-16T01:17:38;3.65;;;1.98;;
73382;SDS011;61600;48.126;11.542;2022-10-16T01:20:26;3.20;;;1.58;;
73382;SDS011;61600;48.126;11.542;2022-10-16T01:25:36;2.35;;;1.30;;
73382;SDS011;61600;48.126;11.542;2022-10-16T01:28:14;2.30;;;1.23;;
73382;SDS011;61600;48.126;11.542;2022-10-16T01:30:43;3.13;;;1.60;;
73382;SDS011;61600;48.126;11.542;2022-10-16T01:33:20;2.45;;;1.17;;
73382;SDS011;61600;48.126;11.542;2022-10-16T01:35:53;3.88;;;1.60;;
73382;SDS011;61600;48.126;11.542;2022-10-16T01:38:33;2.83;;;1.40;;
73382;SDS011;61600;48.126;11.542;2022-10-16T01:41:07;2.63;;;1.40;;
73382;SDS011;61600;48.126;11.542;2022-10-16T01:43:45;2.30;;;1.23;;
73382;SDS011;61600;48.126;11.542;2022-10-16T01:46:21;2.67;;;1.42;;
73382;SDS011;61600;48.126;11.542;2022-10-16T01:48:48;1.90;;;1.10;;
73382;SDS011;61600;48.126;11.542;2022-10-16T01:51:16;2.20;;;1.20;;
73382;SDS011;61600;48.126;11.542;2022-10-16T01:53:44;3.95;;;1.15;;
73382;SDS011;61600;48.126;11.542;2022-10-16T01:56:13;3.08;;;1.23;;
73382;SDS011;61600;48.126;11.542;2022-10-16T01:58:47;3.53;;;1.20;;
73382;SDS011;61600;48.126;11.542;2022-10-16T02:01:17;3.90;;;1.17;;
73382;SDS011;61600;48.126;11.542;2022-10-16T02:03:46;2.90;;;1.80;;
73382;SDS011;61600;48.126;11.542;2022-10-16T02:06:18;2.85;;;1.05;;
73382;SDS011;61600;48.126;11.542;2022-10-16T02:08:43;3.15;;;1.45;;
73382;SDS011;61600;48.126;11.542;2022-10-16T02:11:09;2.40;;;1.30;;
73382;SDS011;61600;48.126;11.542;2022-10-16T02:13:41;3.45;;;1.48;;
73382;SDS011;61600;48.126;11.542;2022-10-16T02:16:12;2.40;;;1.05;;
73382;SDS011;61600;48.126;11.542;2022-10-16T02:18:41;1.58;;;1.05;;
73382;SDS011;61600;48.126;11.542;2022-10-16T02:21:28;1.67;;;1.00;;
73382;SDS011;61600;48.126;11.542;2022-10-16T02:24:13;2.97;;;1.20;;
73382;SDS011;61600;48.126;11.542;2022-10-16T02:26:52;3.40;;;1.17;;
73382;SDS011;61600;48.126;11.542;2022-10-16T02:29:45;2.40;;;1.10;;
73382;SDS011;61600;48.126;11.542;2022-10-16T02:32:17;2.38;;;1.40;;
73382;SDS011;61600;48.126;11.542;2022-10-16T02:34:46;2.67;;;1.20;;
73382;SDS011;61600;48.126;11.542;2022-10-16T02:37:14;3.67;;;1.40;;
73382;SDS011;61600;48.126;11.542;2022-10-16T02:39:43;2.85;;;1.02;;
73382;SDS011;61600;48.126;11.542;2022-10-16T02:42:10;1.88;;;1.15;;
73382;SDS011;61600;48.126;11.542;2022-10-16T02:44:39;2.28;;;1.20;;
73382;SDS011;61600;48.126;11.542;2022-10-16T02:47:05;2.10;;;1.10;;
73382;SDS011;61600;48.126;11.542;2022-10-16T02:49:30;2.42;;;1.13;;
73382;SDS011;61600;48.126;11.542;2022-10-16T02:51:56;3.65;;;1.45;;
73382;SDS011;61600;48.126;11.542;2022-10-16T02:54:22;2.25;;;1.27;;
73382;SDS011;61600;48.126;11.542;2022-10-16T02:56:48;4.13;;;1.20;;
73382;SDS011;61600;48.126;11.542;2022-10-16T02:59:13;2.47;;;1.30;;
73382;SDS011;61600;48.126;11.542;2022-10-16T03:01:39;4.00;;;1.23;;
73382;SDS011;61600;48.126;11.542;2022-10-16T03:04:04;3.17;;;1.30;;
73382;SDS011;61600;48.126;11.542;2022-10-16T03:06:30;3.63;;;2.17;;
73382;SDS011;61600;48.126;11.542;2022-10-16T03:08:56;2.50;;;1.00;;
73382;SDS011;61600;48.126;11.542;2022-10-16T03:11:21;4.78;;;1.20;;
73382;SDS011;61600;48.126;11.542;2022-10-16T03:13:47;2.45;;;0.85;;
73382;SDS011;61600;48.126;11.542;2022-10-16T03:16:12;3.08;;;1.38;;
73382;SDS011;61600;48.126;11.542;2022-10-16T03:18:38;10.63;;;2.58;;
73382;SDS011;61600;48.126;11.542;2022-10-16T03:21:04;3.17;;;1.10;;
73382;SDS011;61600;48.126;11.542;2022-10-16T03:23:29;2.35;;;1.40;;
73382;SDS011;61600;48.126;11.542;2022-10-16T03:25:55;2.05;;;1.15;;
73382;SDS011;61600;48.126;11.542;2022-10-16T03:28:21;4.13;;;1.40;;
73382;SDS011;61600;48.126;11.542;2022-10-16T03:30:47;2.38;;;1.20;;
73382;SDS011;61600;48.126;11.542;2022-10-16T03:33:12;1.67;;;0.98;;
73382;SDS011;61600;48.126;11.542;2022-10-16T03:35:38;1.48;;;0.88;;
73382;SDS011;61600;48.126;11.542;2022-10-16T03:38:03;2.90;;;1.20;;
73382;SDS011;61600;48.126;11.542;2022-10-16T03:40:29;2.25;;;1.13;;
73382;SDS011;61600;48.126;11.542;2022-10-16T03:42:57;1.85;;;1.05;;
73382;SDS011;61600;48.126;11.542;2022-10-16T03:45:23;2.67;;;1.20;;
73382;SDS011;61600;48.126;11.542;2022-10-16T03:47:54;2.58;;;1.02;;
73382;SDS011;61600;48.126;11.542;2022-10-16T03:50:19;1.98;;;0.95;;
73382;SDS011;61600;48.126;11.542;2022-10-16T03:52:45;2.65;;;1.30;;
73382;SDS011;61600;48.126;11.542;2022-10-16T03:55:11;5.70;;;1.40;;
73382;SDS011;61600;48.126;11.542;2022-10-16T03:57:36;3.45;;;1.83;;
73382;SDS011;61600;48.126;11.542;2022-10-16T04:00:02;8.40;;;2.55;;
73382;SDS011;61600;48.126;11.542;2022-10-16T04:02:28;9.13;;;2.05;;
73382;SDS011;61600;48.126;11.542;2022-10-16T04:04:54;2.35;;;0.93;;
73382;SDS011;61600;48.126;11.542;2022-10-16T04:07:19;3.67;;;1.20;;
73382;SDS011;61600;48.126;11.542;2022-10-16T04:09:45;3.40;;;1.10;;
73382;SDS011;61600;48.126;11.542;2022-10-16T04:12:11;2.45;;;1.27;;
73382;SDS011;61600;48.126;11.542;2022-10-16T04:14:36;1.95;;;1.00;;
73382;SDS011;61600;48.126;11.542;2022-10-16T04:17:02;2.30;;;1.20;;
73382;SDS011;61600;48.126;11.542;2022-10-16T04:19:28;8.23;;;2.70;;
73382;SDS011;61600;48.126;11.542;2022-10-16T04:21:53;4.18;;;1.55;;
73382;SDS011;61600;48.126;11.542;2022-10-16T04:24:19;2.33;;;1.00;;
73382;SDS011;61600;48.126;11.542;2022-10-16T04:26:44;2.53;;;1.10;;
73382;SDS011;61600;48.126;11.542;2022-10-16T04:29:10;2.75;;;0.90;;
73382;SDS011;61600;48.126;11.542;2022-10-16T04:31:37;3.22;;;1.02;;
73382;SDS011;61600;48.126;11.542;2022-10-16T04:34:02;2.55;;;1.00;;
73382;SDS011;61600;48.126;11.542;2022-10-16T04:36:28;2.78;;;1.08;;
73382;SDS011;61600;48.126;11.542;2022-10-16T04:38:53;3.25;;;0.98;;
73382;SDS011;61600;48.126;11.542;2022-10-16T04:41:19;5.10;;;1.15;;
73382;SDS011;61600;48.126;11.542;2022-10-16T04:43:45;2.42;;;1.40;;
73382;SDS011;61600;48.126;11.542;2022-10-16T04:46:10;1.85;;;0.90;;
73382;SDS011;61600;48.126;11.542;2022-10-16T04:48:36;1.45;;;0.93;;
73382;SDS011;61600;48.126;11.542;2022-10-16T04:51:02;4.38;;;1.27;;
73382;SDS011;61600;48.126;11.542;2022-10-16T04:53:27;5.43;;;1.25;;
73382;SDS011;61600;48.126;11.542;2022-10-16T04:55:53;2.20;;;1.00;;
73382;SDS011;61600;48.126;11.542;2022-10-16T04:58:18;2.83;;;1.20;;
73382;SDS011;61600;48.126;11.542;2022-10-16T05:00:54;2.85;;;1.20;;
73382;SDS011;61600;48.126;11.542;2022-10-16T05:03:20;2.08;;;1.40;;
73382;SDS011;61600;48.126;11.542;2022-10-16T05:05:45;2.20;;;0.90;;
73382;SDS011;61600;48.126;11.542;2022-10-16T05:08:13;4.05;;;1.20;;
73382;SDS011;61600;48.126;11.542;2022-10-16T05:13:06;2.38;;;1.27;;
73382;SDS011;61600;48.126;11.542;2022-10-16T05:15:32;6.07;;;1.20;;
73382;SDS011;61600;48.126;11.542;2022-10-16T05:17:58;2.08;;;1.15;;
73382;SDS011;61600;48.126;11.542;2022-10-16T05:20:24;2.63;;;1.20;;
73382;SDS011;61600;48.126;11.542;2022-10-16T05:22:54;3.75;;;1.35;;
73382;SDS011;61600;48.126;11.542;2022-10-16T05:25:20;4.45;;;1.25;;
73382;SDS011;61600;48.126;11.542;2022-10-16T05:27:49;2.05;;;1.08;;
73382;SDS011;61600;48.126;11.542;2022-10-16T05:30:15;2.33;;;1.30;;
73382;SDS011;61600;48.126;11.542;2022-10-16T05:32:45;6.25;;;1.25;;
73382;SDS011;61600;48.126;11.542;2022-10-16T05:35:11;2.92;;;1.20;;
73382;SDS011;61600;48.126;11.542;2022-10-16T05:37:37;4.07;;;1.38;;
73382;SDS011;61600;48.126;11.542;2022-10-16T05:40:02;3.08;;;1.48;;
73382;SDS011;61600;48.126;11.542;2022-10-16T05:42:30;2.10;;;1.20;;
73382;SDS011;61600;48.126;11.542;2022-10-16T05:44:56;2.67;;;1.48;;
73382;SDS011;61600;48.126;11.542;2022-10-16T05:47:21;3.88;;;1.50;;
73382;SDS011;61600;48.126;11.542;2022-10-16T05:49:47;2.83;;;1.20;;
73382;SDS011;61600;48.126;11.542;2022-10-16T05:52:12;7.85;;;1.50;;
73382;SDS011;61600;48.126;11.542;2022-10-16T05:54:38;3.75;;;1.75;;
73382;SDS011;61600;48.126;11.542;2022-10-16T05:57:04;4.07;;;1.45;;
73382;SDS011;61600;48.126;11.542;2022-10-16T05:59:31;2.75;;;1.13;;
73382;SDS011;61600;48.126;11.542;2022-10-16T06:01:57;4.40;;;1.45;;
73382;SDS011;61600;48.126;11.542;2022-10-16T06:04:22;2.97;;;1.52;;
73382;SDS011;61600;48.126;11.542;2022-10-16T06:06:48;3.20;;;1.60;;
73382;SDS011;61600;48.126;11.542;2022-10-16T06:09:14;3.03;;;1.40;;
73382;SDS011;61600;48.126;11.542;2022-10-16T06:11:39;3.13;;;1.50;;
73382;SDS011;61600;48.126;11.542;2022-10-16T06:14:05;3.00;;;1.35;;
73382;SDS011;61600;48.126;11.542;2022-10-16T06:16:34;3.67;;;1.90;;
73382;SDS011;61600;48.126;11.542;2022-10-16T06:19:01;3.63;;;1.90;;
73382;SDS011;61600;48.126;11.542;2022-10-16T06:21:29;3.20;;;1.70;;
73382;SDS011;61600;48.126;11.542;2022-10-16T06:23:55;3.45;;;1.60;;
73382;SDS011;61600;48.126;11.542;2022-10-16T06:26:22;2.97;;;1.40;;
73382;SDS011;61600;48.126;11.542;2022-10-16T06:28:56;2.85;;;1.48;;
73382;SDS011;61600;48.126;11.542;2022-10-16T06:31:24;6.55;;;1.50;;
73382;SDS011;61600;48.126;11.542;2022-10-16T06:33:56;6.50;;;1.80;;
73382;SDS011;61600;48.126;11.542;2022-10-16T06:36:22;4.32;;;1.75;;
73382;SDS011;61600;48.126;11.542;2022-10-16T06:38:48;4.15;;;1.60;;
73382;SDS011;61600;48.126;11.542;2022-10-16T06:41:15;3.85;;;1.60;;
73382;SDS011;61600;48.126;11.542;2022-10-16T06:43:43;4.40;;;1.92;;
73382;SDS011;61600;48.126;11.542;2022-10-16T06:46:10;3.28;;;1.60;;
73382;SDS011;61600;48.126;11.542;2022-10-16T06:48:38;5.20;;;1.77;;
73382;SDS011;61600;48.126;11.542;2022-10-16T06:51:11;3.15;;;1.50;;
73382;SDS011;61600;48.126;11.542;2022-10-16T06:53:40;5.03;;;1.90;;
73382;SDS011;61600;48.126;11.542;2022-10-16T06:56:12;3.08;;;2.08;;
73382;SDS011;61600;48.126;11.542;2022-10-16T06:58:48;3.78;;;1.52;;
73382;SDS011;61600;48.126;11.542;2022-10-16T07:01:15;7.53;;;2.60;;
73382;SDS011;61600;48.126;11.542;2022-10-16T07:03:52;3.38;;;1.88;;
73382;SDS011;61600;48.126;11.542;2022-10-16T07:06:18;3.60;;;1.90;;
73382;SDS011;61600;48.126;11.542;2022-10-16T07:08:46;5.72;;;1.98;;
73382;SDS011;61600;48.126;11.542;2022-10-16T07:11:14;6.90;;;2.28;;
73382;SDS011;61600;48.126;11.542;2022-10-16T07:13:42;4.18;;;2.25;;
73382;SDS011;61600;48.126;11.542;2022-10-16T07:16:13;4.53;;;2.15;;
73382;SDS011;61600;48.126;11.542;2022-10-16T07:18:40;3.70;;;2.00;;
73382;SDS011;61600;48.126;11.542;2022-10-16T07:21:09;2.80;;;1.70;;
73382;SDS011;61600;48.126;11.542;2022-10-16T07:23:37;3.38;;;1.80;;
73382;SDS011;61600;48.126;11.542;2022-10-16T07:26:03;2.67;;;1.73;;
73382;SDS011;61600;48.126;11.542;2022-10-16T07:28:30;3.47;;;1.60;;
73382;SDS011;61600;48.126;11.542;2022-10-16T07:31:01;4.20;;;1.58;;
73382;SDS011;61600;48.126;11.542;2022-10-16T07:33:28;3.33;;;1.73;;
73382;SDS011;61600;48.126;11.542;2022-10-16T07:35:54;3.80;;;2.03;;
73382;SDS011;61600;48.126;11.542;2022-10-16T07:38:20;3.15;;;1.75;;
73382;SDS011;61600;48.126;11.542;2022-10-16T07:40:46;3.90;;;1.88;;
73382;SDS011;61600;48.126;11.542;2022-10-16T07:43:12;4.60;;;1.90;;
73382;SDS011;61600;48.126;11.542;2022-10-16T07:45:46;3.72;;;1.85;;
73382;SDS011;61600;48.126;11.542;2022-10-16T07:48:15;3.20;;;1.50;;
73382;SDS011;61600;48.126;11.542;2022-10-16T07:50:47;4.03;;;1.60;;
73382;SDS011;61600;48.126;11.542;2022-10-16T07:53:13;2.97;;;1.55;;
73382;SDS011;61600;48.126;11.542;2022-10-16T07:56:02;3.88;;;1.90;;
73382;SDS011;61600;48.126;11.542;2022-10-16T07:58:30;3.60;;;1.48;;
73382;SDS011;61600;48.126;11.542;2022-10-16T08:00:56;3.33;;;1.63;;
73382;SDS011;61600;48.126;11.542;2022-10-16T08:03:28;4.45;;;1.45;;
73382;SDS011;61600;48.126;11.542;2022-10-16T08:05:53;1.92;;;1.15;;
73382;SDS011;61600;48.126;11.542;2022-10-16T08:08:22;3.85;;;1.63;;
73382;SDS011;61600;48.126;11.542;2022-10-16T08:10:48;4.80;;;1.75;;
73382;SDS011;61600;48.126;11.542;2022-10-16T08:13:13;2.75;;;1.42;;
73382;SDS011;61600;48.126;11.542;2022-10-16T08:15:40;3.67;;;1.40;;
73382;SDS011;61600;48.126;11.542;2022-10-16T08:18:07;3.67;;;1.38;;
73382;SDS011;61600;48.126;11.542;2022-10-16T08:20:33;2.25;;;1.30;;
73382;SDS011;61600;48.126;11.542;2022-10-16T08:22:59;2.35;;;1.40;;
73382;SDS011;61600;48.126;11.542;2022-10-16T08:25:25;2.75;;;1.48;;
73382;SDS011;61600;48.126;11.542;2022-10-16T08:27:51;2.92;;;1.45;;
73382;SDS011;61600;48.126;11.542;2022-10-16T08:30:17;2.30;;;1.40;;
73382;SDS011;61600;48.126;11.542;2022-10-16T08:32:44;3.45;;;1.55;;
73382;SDS011;61600;48.126;11.542;2022-10-16T08:35:11;2.55;;;1.23;;
73382;SDS011;61600;48.126;11.542;2022-10-16T08:37:37;2.15;;;1.20;;
73382;SDS011;61600;48.126;11.542;2022-10-16T08:40:04;2.55;;;1.50;;
73382;SDS011;61600;48.126;11.542;2022-10-16T08:48:26;3.55;;;1.55;;
73382;SDS011;61600;48.126;11.542;2022-10-16T08:50:58;2.78;;;1.38;;
73382;SDS011;61600;48.126;11.542;2022-10-16T08:53:30;3.15;;;1.48;;
73382;SDS011;61600;48.126;11.542;2022-10-16T08:56:03;2.42;;;1.38;;
73382;SDS011;61600;48.126;11.542;2022-10-16T08:58:29;3.80;;;1.35;;
73382;SDS011;61600;48.126;11.542;2022-10-16T09:00:56;4.93;;;2.35;;
73382;SDS011;61600;48.126;11.542;2022-10-16T09:09:04;3.22;;;1.45;;
73382;SDS011;61600;48.126;11.542;2022-10-16T09:15:11;5.07;;;1.40;;
73382;SDS011;61600;48.126;11.542;2022-10-16T09:23:29;3.00;;;1.42;;
73382;SDS011;61600;48.126;11.542;2022-10-16T09:25:59;3.85;;;1.58;;
73382;SDS011;61600;48.126;11.542;2022-10-16T09:28:25;3.05;;;1.42;;
73382;SDS011;61600;48.126;11.542;2022-10-16T09:30:56;3.88;;;1.50;;
73382;SDS011;61600;48.126;11.542;2022-10-16T09:33:28;2.70;;;1.15;;
73382;SDS011;61600;48.126;11.542;2022-10-16T09:35:58;2.58;;;1.50;;
73382;SDS011;61600;48.126;11.542;2022-10-16T09:38:32;3.03;;;1.58;;
73382;SDS011;61600;48.126;11.542;2022-10-16T09:41:11;2.83;;;1.35;;
73382;SDS011;61600;48.126;11.542;2022-10-16T09:46:22;2.78;;;1.33;;
73382;SDS011;61600;48.126;11.542;2022-10-16T09:48:53;2.75;;;1.45;;
73382;SDS011;61600;48.126;11.542;2022-10-16T09:51:23;3.35;;;1.50;;
73382;SDS011;61600;48.126;11.542;2022-10-16T09:53:54;3.05;;;1.48;;
73382;SDS011;61600;48.126;11.542;2022-10-16T09:56:23;2.92;;;1.27;;
73382;SDS011;61600;48.126;11.542;2022-10-16T09:58:58;3.42;;;1.42;;
73382;SDS011;61600;48.126;11.542;2022-10-16T10:01:37;3.08;;;1.55;;
73382;SDS011;61600;48.126;11.542;2022-10-16T10:04:05;2.33;;;1.23;;
73382;SDS011;61600;48.126;11.542;2022-10-16T10:06:53;4.45;;;1.50;;
73382;SDS011;61600;48.126;11.542;2022-10-16T10:09:23;2.15;;;1.20;;
73382;SDS011;61600;48.126;11.542;2022-10-16T10:11:52;3.50;;;1.52;;
73382;SDS011;61600;48.126;11.542;2022-10-16T10:14:32;2.08;;;1.17;;
73382;SDS011;61600;48.126;11.542;2022-10-16T10:19:39;3.55;;;1.80;;
73382;SDS011;61600;48.126;11.542;2022-10-16T10:30:36;6.43;;;1.42;;
73382;SDS011;61600;48.126;11.542;2022-10-16T10:36:19;4.35;;;1.60;;
73382;SDS011;61600;48.126;11.542;2022-10-16T10:42:00;2.42;;;1.02;;
73382;SDS011;61600;48.126;11.542;2022-10-16T10:47:40;2.05;;;1.30;;
73382;SDS011;61600;48.126;11.542;2022-10-16T10:58:33;1.75;;;1.20;;
73382;SDS011;61600;48.126;11.542;2022-10-16T11:06:52;3.47;;;1.20;;
73382;SDS011;61600;48.126;11.542;2022-10-16T11:09:28;1.55;;;0.85;;
73382;SDS011;61600;48.126;11.542;2022-10-16T11:14:54;2.13;;;0.70;;
73382;SDS011;61600;48.126;11.542;2022-10-16T11:17:28;2.28;;;1.20;;
73382;SDS011;61600;48.126;11.542;2022-10-16T11:20:12;1.63;;;0.88;;
73382;SDS011;61600;48.126;11.542;2022-10-16T11:25:31;2.38;;;0.90;;
73382;SDS011;61600;48.126;11.542;2022-10-16T11:30:51;2.35;;;1.10;;
73382;SDS011;61600;48.126;11.542;2022-10-16T11:36:08;1.23;;;0.75;;
73382;SDS011;61600;48.126;11.542;2022-10-16T11:43:58;2.55;;;0.80;;
73382;SDS011;61600;48.126;11.542;2022-10-16T11:49:18;1.60;;;0.80;;
73382;SDS011;61600;48.126;11.542;2022-10-16T11:51:50;2.55;;;0.90;;
73382;SDS011;61600;48.126;11.542;2022-10-16T11:54:33;3.17;;;1.67;;
73382;SDS011;61600;48.126;11.542;2022-10-16T11:57:11;1.17;;;0.70;;
73382;SDS011;61600;48.126;11.542;2022-10-16T12:05:11;2.63;;;0.80;;
73382;SDS011;61600;48.126;11.542;2022-10-16T12:08:11;0.82;;;0.70;;
73382;SDS011;61600;48.126;11.542;2022-10-16T12:10:39;2.10;;;0.63;;
73382;SDS011;61600;48.126;11.542;2022-10-16T12:16:36;2.60;;;0.70;;
73382;SDS011;61600;48.126;11.542;2022-10-16T12:19:07;1.20;;;0.63;;
73382;SDS011;61600;48.126;11.542;2022-10-16T12:21:35;1.30;;;0.65;;
73382;SDS011;61600;48.126;11.542;2022-10-16T12:24:01;3.05;;;0.75;;
73382;SDS011;61600;48.126;11.542;2022-10-16T12:26:31;1.48;;;0.80;;
73382;SDS011;61600;48.126;11.542;2022-10-16T12:31:56;1.15;;;0.77;;
73382;SDS011;61600;48.126;11.542;2022-10-16T12:39:37;1.40;;;0.90;;
73382;SDS011;61600;48.126;11.542;2022-10-16T12:42:04;2.80;;;1.15;;
73382;SDS011;61600;48.126;11.542;2022-10-16T12:44:49;2.00;;;1.00;;
73382;SDS011;61600;48.126;11.542;2022-10-16T12:47:19;1.35;;;0.80;;
73382;SDS011;61600;48.126;11.542;2022-10-16T12:49:51;3.15;;;1.00;;
73382;SDS011;61600;48.126;11.542;2022-10-16T12:52:29;2.25;;;0.73;;
73382;SDS011;61600;48.126;11.542;2022-10-16T12:55:02;2.30;;;0.85;;
73382;SDS011;61600;48.126;11.542;2022-10-16T12:57:32;4.35;;;1.33;;
73382;SDS011;61600;48.126;11.542;2022-10-16T13:00:36;2.97;;;1.70;;
73382;SDS011;61600;48.126;11.542;2022-10-16T13:06:30;1.60;;;0.98;;
73382;SDS011;61600;48.126;11.542;2022-10-16T13:15:12;1.42;;;0.75;;
73382;SDS011;61600;48.126;11.542;2022-10-16T13:20:56;5.03;;;1.30;;
73382;SDS011;61600;48.126;11.542;2022-10-16T13:27:04;2.15;;;1.10;;
73382;SDS011;61600;48.126;11.542;2022-10-16T13:29:42;1.20;;;0.90;;
73382;SDS011;61600;48.126;11.542;2022-10-16T13:32:09;2.22;;;0.90;;
73382;SDS011;61600;48.126;11.542;2022-10-16T13:34:44;1.67;;;0.90;;
73382;SDS011;61600;48.126;11.542;2022-10-16T13:37:26;1.40;;;0.80;;
73382;SDS011;61600;48.126;11.542;2022-10-16T13:40:02;1.02;;;0.80;;
73382;SDS011;61600;48.126;11.542;2022-10-16T13:42:53;2.67;;;0.95;;
73382;SDS011;61600;48.126;11.542;2022-10-16T13:45:23;1.40;;;0.73;;
73382;SDS011;61600;48.126;11.542;2022-10-16T13:48:01;1.33;;;0.63;;
73382;SDS011;61600;48.126;11.542;2022-10-16T13:50:30;2.08;;;1.00;;
73382;SDS011;61600;48.126;11.542;2022-10-16T13:55:49;2.03;;;0.95;;
73382;SDS011;61600;48.126;11.542;2022-10-16T13:58:18;2.63;;;0.90;;
73382;SDS011;61600;48.126;11.542;2022-10-16T14:00:54;2.22;;;0.80;;
73382;SDS011;61600;48.126;11.542;2022-10-16T14:03:21;1.63;;;0.80;;
73382;SDS011;61600;48.126;11.542;2022-10-16T14:05:59;2.97;;;0.80;;
73382;SDS011;61600;48.126;11.542;2022-10-16T14:08:30;1.00;;;0.60;;
73382;SDS011;61600;48.126;11.542;2022-10-16T14:11:22;0.88;;;0.60;;
73382;SDS011;61600;48.126;11.542;2022-10-16T14:13:49;2.25;;;0.85;;
73382;SDS011;61600;48.126;11.542;2022-10-16T14:16:20;2.45;;;0.88;;
73382;SDS011;61600;48.126;11.542;2022-10-16T14:18:59;1.45;;;0.70;;
73382;SDS011;61600;48.126;11.542;2022-10-16T14:21:29;1.60;;;0.90;;
73382;SDS011;61600;48.126;11.542;2022-10-16T14:23:55;2.97;;;1.00;;
73382;SDS011;61600;48.126;11.542;2022-10-16T14:26:30;1.27;;;0.63;;
73382;SDS011;61600;48.126;11.542;2022-10-16T14:29:11;1.40;;;0.80;;
73382;SDS011;61600;48.126;11.542;2022-10-16T14:31:39;2.03;;;0.70;;
73382;SDS011;61600;48.126;11.542;2022-10-16T14:37:20;2.97;;;0.68;;
73382;SDS011;61600;48.126;11.542;2022-10-16T14:39:53;2.08;;;1.00;;
73382;SDS011;61600;48.126;11.542;2022-10-16T14:42:24;2.65;;;0.70;;
73382;SDS011;61600;48.126;11.542;2022-10-16T14:44:56;1.25;;;0.70;;
73382;SDS011;61600;48.126;11.542;2022-10-16T14:47:22;3.45;;;0.80;;
73382;SDS011;61600;48.126;11.542;2022-10-16T14:49:51;4.57;;;1.38;;
73382;SDS011;61600;48.126;11.542;2022-10-16T14:52:21;2.58;;;1.15;;
73382;SDS011;61600;48.126;11.542;2022-10-16T14:54:50;4.03;;;1.10;;
73382;SDS011;61600;48.126;11.542;2022-10-16T14:57:23;5.03;;;1.30;;
73382;SDS011;61600;48.126;11.542;2022-10-16T14:59:55;4.13;;;1.20;;
73382;SDS011;61600;48.126;11.542;2022-10-16T15:02:32;4.95;;;1.00;;
73382;SDS011;61600;48.126;11.542;2022-10-16T15:07:47;4.50;;;1.20;;
73382;SDS011;61600;48.126;11.542;2022-10-16T15:10:15;2.92;;;1.05;;
73382;SDS011;61600;48.126;11.542;2022-10-16T15:12:44;1.92;;;1.10;;
73382;SDS011;61600;48.126;11.542;2022-10-16T15:17:48;4.32;;;1.70;;
73382;SDS011;61600;48.126;11.542;2022-10-16T15:20:19;6.35;;;2.10;;
73382;SDS011;61600;48.126;11.542;2022-10-16T15:22:45;4.68;;;2.17;;
73382;SDS011;61600;48.126;11.542;2022-10-16T15:27:59;6.05;;;2.30;;
73382;SDS011;61600;48.126;11.542;2022-10-16T15:30:26;7.75;;;2.40;;
73382;SDS011;61600;48.126;11.542;2022-10-16T15:32:57;3.70;;;1.70;;
73382;SDS011;61600;48.126;11.542;2022-10-16T15:35:27;4.00;;;1.20;;
73382;SDS011;61600;48.126;11.542;2022-10-16T15:37:53;2.88;;;1.10;;
73382;SDS011;61600;48.126;11.542;2022-10-16T15:40:20;2.20;;;1.02;;
73382;SDS011;61600;48.126;11.542;2022-10-16T15:42:51;3.63;;;1.13;;
73382;SDS011;61600;48.126;11.542;2022-10-16T15:45:17;4.35;;;1.00;;
73382;SDS011;61600;48.126;11.542;2022-10-16T15:47:45;1.85;;;1.02;;
73382;SDS011;61600;48.126;11.542;2022-10-16T15:52:38;4.03;;;1.50;;
73382;SDS011;61600;48.126;11.542;2022-10-16T15:55:08;2.28;;;1.30;;
73382;SDS011;61600;48.126;11.542;2022-10-16T15:57:48;4.00;;;1.55;;
73382;SDS011;61600;48.126;11.542;2022-10-16T16:00:15;3.28;;;1.30;;
73382;SDS011;61600;48.126;11.542;2022-10-16T16:02:53;2.70;;;1.20;;
73382;SDS011;61600;48.126;11.542;2022-10-16T16:05:19;2.35;;;1.20;;
73382;SDS011;61600;48.126;11.542;2022-10-16T16:07:46;2.88;;;1.10;;
73382;SDS011;61600;48.126;11.542;2022-10-16T16:12:38;4.07;;;1.17;;
73382;SDS011;61600;48.126;11.542;2022-10-16T16:15:05;2.88;;;1.40;;
73382;SDS011;61600;48.126;11.542;2022-10-16T16:17:32;4.00;;;1.10;;
73382;SDS011;61600;48.126;11.542;2022-10-16T16:19:58;4.80;;;1.35;;
73382;SDS011;61600;48.126;11.542;2022-10-16T16:22:24;3.60;;;1.40;;
73382;SDS011;61600;48.126;11.542;2022-10-16T16:25:00;2.63;;;1.40;;
73382;SDS011;61600;48.126;11.542;2022-10-16T16:27:27;1.85;;;1.13;;
73382;SDS011;61600;48.126;11.542;2022-10-16T16:29:55;3.65;;;1.60;;
73382;SDS011;61600;48.126;11.542;2022-10-16T16:32:21;2.58;;;1.50;;
73382;SDS011;61600;48.126;11.542;2022-10-16T16:34:47;5.20;;;1.30;;
73382;SDS011;61600;48.126;11.542;2022-10-16T16:37:12;4.05;;;1.10;;
73382;SDS011;61600;48.126;11.542;2022-10-16T16:39:38;3.95;;;1.52;;
73382;SDS011;61600;48.126;11.542;2022-10-16T16:42:04;2.65;;;1.45;;
73382;SDS011;61600;48.126;11.542;2022-10-16T16:44:31;4.20;;;1.40;;
73382;SDS011;61600;48.126;11.542;2022-10-16T16:46:57;4.22;;;1.30;;
73382;SDS011;61600;48.126;11.542;2022-10-16T16:49:27;2.58;;;1.23;;
73382;SDS011;61600;48.126;11.542;2022-10-16T16:51:52;3.58;;;1.50;;
73382;SDS011;61600;48.126;11.542;2022-10-16T16:54:19;3.30;;;1.42;;
73382;SDS011;61600;48.126;11.542;2022-10-16T16:57:04;5.63;;;1.50;;
73382;SDS011;61600;48.126;11.542;2022-10-16T16:59:30;8.75;;;1.83;;
73382;SDS011;61600;48.126;11.542;2022-10-16T17:02:00;3.50;;;1.48;;
73382;SDS011;61600;48.126;11.542;2022-10-16T17:04:29;4.55;;;1.40;;
73382;SDS011;61600;48.126;11.542;2022-10-16T17:06:57;4.57;;;1.63;;
73382;SDS011;61600;48.126;11.542;2022-10-16T17:09:22;4.30;;;1.83;;
73382;SDS011;61600;48.126;11.542;2022-10-16T17:11:48;3.95;;;1.88;;